createdAt,value
2018-04-06T00:00:00.485Z,4.61111111111
2018-04-06T00:00:12.675Z,4.61111111111
2018-04-06T00:00:24.848Z,4.61111111111
2018-04-06T00:00:37.022Z,4.61111111111
2018-04-06T00:00:49.186Z,4.61111111111
2018-04-06T00:01:01.361Z,4.61111111111
2018-04-06T00:01:13.513Z,4.61111111111
2018-04-06T00:01:25.692Z,4.61111111111
2018-04-06T00:01:37.831Z,4.61111111111
2018-04-06T00:01:50.012Z,4.61111111111
2018-04-06T00:02:02.184Z,4.61111111111
2018-04-06T00:02:14.355Z,4.61111111111
2018-04-06T00:02:26.527Z,4.61111111111
2018-04-06T00:02:38.690Z,4.61111111111
2018-04-06T00:02:50.846Z,4.61111111111
2018-04-06T00:03:02.995Z,4.61111111111
2018-04-06T00:03:15.214Z,4.61111111111
2018-04-06T00:03:27.387Z,4.61111111111
2018-04-06T00:03:39.538Z,4.61111111111
2018-04-06T00:03:51.675Z,4.61111111111
2018-04-06T00:04:03.836Z,4.55555555556
2018-04-06T00:04:15.997Z,4.55555555556
2018-04-06T00:04:28.164Z,4.61111111111
2018-04-06T00:04:40.639Z,4.61111111111
2018-04-06T00:04:52.857Z,4.61111111111
2018-04-06T00:05:05.005Z,4.55555555556
2018-04-06T00:05:17.179Z,4.55555555556
2018-04-06T00:05:29.331Z,4.55555555556
2018-04-06T00:05:41.479Z,4.61111111111
2018-04-06T00:05:53.633Z,4.55555555556
2018-04-06T00:06:05.769Z,4.55555555556
2018-04-06T00:06:17.928Z,4.55555555556
2018-04-06T00:06:30.128Z,4.55555555556
2018-04-06T00:06:42.272Z,4.55555555556
2018-04-06T00:06:54.425Z,4.55555555556
2018-04-06T00:07:06.604Z,4.55555555556
2018-04-06T00:07:18.805Z,4.55555555556
2018-04-06T00:07:30.962Z,4.55555555556
2018-04-06T00:07:43.095Z,4.55555555556
2018-04-06T00:07:55.235Z,4.55555555556
2018-04-06T00:08:07.385Z,4.55555555556
2018-04-06T00:08:19.528Z,4.55555555556
2018-04-06T00:08:31.677Z,4.55555555556
2018-04-06T00:08:43.808Z,4.55555555556
2018-04-06T00:08:55.979Z,4.55555555556
2018-04-06T00:09:08.130Z,4.55555555556
2018-04-06T00:09:20.275Z,4.55555555556
2018-04-06T00:09:32.423Z,4.55555555556
2018-04-06T00:09:44.631Z,4.55555555556
2018-04-06T00:09:56.793Z,4.55555555556
2018-04-06T00:10:08.939Z,4.55555555556
2018-04-06T00:10:21.121Z,4.55555555556
2018-04-06T00:10:33.269Z,4.55555555556
2018-04-06T00:10:45.395Z,4.55555555556
2018-04-06T00:10:57.565Z,4.55555555556
2018-04-06T00:11:09.728Z,4.55555555556
2018-04-06T00:11:21.876Z,4.55555555556
2018-04-06T00:11:34.041Z,4.55555555556
2018-04-06T00:11:46.498Z,4.55555555556
2018-04-06T00:11:58.643Z,4.55555555556
2018-04-06T00:12:10.798Z,4.55555555556
2018-04-06T00:12:22.942Z,4.55555555556
2018-04-06T00:12:35.090Z,4.55555555556
2018-04-06T00:12:47.242Z,4.55555555556
2018-04-06T00:12:59.401Z,4.55555555556
2018-04-06T00:13:11.809Z,4.55555555556
2018-04-06T00:13:23.963Z,4.55555555556
2018-04-06T00:13:36.206Z,4.55555555556
2018-04-06T00:13:48.355Z,4.55555555556
2018-04-06T00:14:00.501Z,4.55555555556
2018-04-06T00:14:12.657Z,4.55555555556
2018-04-06T00:14:24.814Z,4.55555555556
2018-04-06T00:14:36.971Z,4.55555555556
2018-04-06T00:14:49.139Z,4.5
2018-04-06T00:15:01.354Z,4.55555555556
2018-04-06T00:15:13.494Z,4.55555555556
2018-04-06T00:15:25.661Z,4.55555555556
2018-04-06T00:15:37.790Z,4.55555555556
2018-04-06T00:15:49.948Z,4.55555555556
2018-04-06T00:16:02.109Z,4.55555555556
2018-04-06T00:16:14.259Z,4.5
2018-04-06T00:16:26.427Z,4.5
2018-04-06T00:16:38.593Z,4.55555555556
2018-04-06T00:16:50.728Z,4.55555555556
2018-04-06T00:17:02.888Z,4.5
2018-04-06T00:17:15.051Z,4.5
2018-04-06T00:17:27.237Z,4.5
2018-04-06T00:17:39.530Z,4.5
2018-04-06T00:17:52.107Z,4.5
2018-04-06T00:18:04.243Z,4.5
2018-04-06T00:18:16.395Z,4.5
2018-04-06T00:18:28.540Z,4.5
2018-04-06T00:18:40.682Z,4.5
2018-04-06T00:18:52.871Z,4.5
2018-04-06T00:19:05.003Z,4.5
2018-04-06T00:19:17.167Z,4.5
2018-04-06T00:19:29.323Z,4.5
2018-04-06T00:19:41.453Z,4.5
2018-04-06T00:19:53.597Z,4.5
2018-04-06T00:20:05.812Z,4.5
2018-04-06T00:20:17.941Z,4.5
2018-04-06T00:20:30.129Z,4.5
2018-04-06T00:20:42.281Z,4.5
2018-04-06T00:20:54.424Z,4.5
2018-04-06T00:21:06.605Z,4.5
2018-04-06T00:21:18.757Z,4.5
2018-04-06T00:21:30.926Z,4.5
2018-04-06T00:21:43.083Z,4.5
2018-04-06T00:21:55.246Z,4.5
2018-04-06T00:22:07.409Z,4.5
2018-04-06T00:22:19.551Z,4.5
2018-04-06T00:22:31.738Z,4.44444444444
2018-04-06T00:22:43.903Z,4.5
2018-04-06T00:22:56.171Z,4.5
2018-04-06T00:23:08.329Z,4.5
2018-04-06T00:23:20.469Z,4.5
2018-04-06T00:23:32.619Z,4.5
2018-04-06T00:23:44.827Z,4.5
2018-04-06T00:23:56.969Z,4.5
2018-04-06T00:24:09.110Z,4.5
2018-04-06T00:24:21.247Z,4.5
2018-04-06T00:24:33.435Z,4.44444444444
2018-04-06T00:24:45.600Z,4.44444444444
2018-04-06T00:24:57.756Z,4.44444444444
2018-04-06T00:25:09.946Z,4.44444444444
2018-04-06T00:25:22.193Z,4.5
2018-04-06T00:25:34.361Z,4.44444444444
2018-04-06T00:25:46.550Z,4.44444444444
2018-04-06T00:25:58.698Z,4.44444444444
2018-04-06T00:26:10.852Z,4.5
2018-04-06T00:26:23.034Z,4.5
2018-04-06T00:26:35.184Z,4.5
2018-04-06T00:26:47.339Z,4.44444444444
2018-04-06T00:26:59.488Z,4.44444444444
2018-04-06T00:27:11.648Z,4.44444444444
2018-04-06T00:27:23.829Z,4.44444444444
2018-04-06T00:27:36.015Z,4.44444444444
2018-04-06T00:27:48.169Z,4.44444444444
2018-04-06T00:28:00.317Z,4.44444444444
2018-04-06T00:28:12.464Z,4.44444444444
2018-04-06T00:28:24.618Z,4.44444444444
2018-04-06T00:28:36.778Z,4.44444444444
2018-04-06T00:28:48.942Z,4.44444444444
2018-04-06T00:29:01.091Z,4.44444444444
2018-04-06T00:29:13.267Z,4.44444444444
2018-04-06T00:29:25.421Z,4.44444444444
2018-04-06T00:29:37.588Z,4.44444444444
2018-04-06T00:29:49.746Z,4.44444444444
2018-04-06T00:30:01.876Z,4.44444444444
2018-04-06T00:30:14.151Z,4.44444444444
2018-04-06T00:30:26.369Z,4.44444444444
2018-04-06T00:30:38.513Z,4.44444444444
2018-04-06T00:30:50.646Z,4.44444444444
2018-04-06T00:31:02.784Z,4.44444444444
2018-04-06T00:31:15.268Z,4.44444444444
2018-04-06T00:31:27.408Z,4.44444444444
2018-04-06T00:31:39.534Z,4.44444444444
2018-04-06T00:31:51.682Z,4.44444444444
2018-04-06T00:32:03.804Z,4.44444444444
2018-04-06T00:32:15.935Z,4.44444444444
2018-04-06T00:32:28.071Z,4.44444444444
2018-04-06T00:32:40.222Z,4.44444444444
2018-04-06T00:32:52.362Z,4.44444444444
2018-04-06T00:33:04.531Z,4.38888888889
2018-04-06T00:33:16.695Z,4.44444444444
2018-04-06T00:33:28.845Z,4.38888888889
2018-04-06T00:33:41.007Z,4.38888888889
2018-04-06T00:33:53.155Z,4.38888888889
2018-04-06T00:34:05.503Z,4.38888888889
2018-04-06T00:34:17.998Z,4.38888888889
2018-04-06T00:34:30.147Z,4.38888888889
2018-04-06T00:34:42.299Z,4.38888888889
2018-04-06T00:34:54.455Z,4.38888888889
2018-04-06T00:35:06.626Z,4.38888888889
2018-04-06T00:35:18.799Z,4.38888888889
2018-04-06T00:35:30.927Z,4.38888888889
2018-04-06T00:35:43.083Z,4.38888888889
2018-04-06T00:35:55.246Z,4.44444444444
2018-04-06T00:36:07.563Z,4.38888888889
2018-04-06T00:36:19.735Z,4.38888888889
2018-04-06T00:36:31.939Z,4.38888888889
2018-04-06T00:36:44.074Z,4.38888888889
2018-04-06T00:36:56.237Z,4.38888888889
2018-04-06T00:37:08.424Z,4.38888888889
2018-04-06T00:37:20.575Z,4.38888888889
2018-04-06T00:37:32.721Z,4.38888888889
2018-04-06T00:37:44.869Z,4.38888888889
2018-04-06T00:37:57.011Z,4.38888888889
2018-04-06T00:38:09.138Z,4.38888888889
2018-04-06T00:38:21.279Z,4.38888888889
2018-04-06T00:38:33.425Z,4.38888888889
2018-04-06T00:38:45.567Z,4.38888888889
2018-04-06T00:38:57.692Z,4.33333333333
2018-04-06T00:39:09.832Z,4.38888888889
2018-04-06T00:39:21.989Z,4.38888888889
2018-04-06T00:39:34.139Z,4.38888888889
2018-04-06T00:39:46.305Z,4.38888888889
2018-04-06T00:39:58.425Z,4.38888888889
2018-04-06T00:40:10.593Z,4.38888888889
2018-04-06T00:40:22.737Z,4.33333333333
2018-04-06T00:40:35.081Z,4.38888888889
2018-04-06T00:40:47.252Z,4.38888888889
2018-04-06T00:40:59.424Z,4.38888888889
2018-04-06T00:41:11.606Z,4.38888888889
2018-04-06T00:41:23.752Z,4.38888888889
2018-04-06T00:41:35.894Z,4.38888888889
2018-04-06T00:41:48.042Z,4.38888888889
2018-04-06T00:42:00.498Z,4.38888888889
2018-04-06T00:42:12.694Z,4.33333333333
2018-04-06T00:42:24.843Z,4.33333333333
2018-04-06T00:42:37.010Z,4.33333333333
2018-04-06T00:42:49.147Z,4.38888888889
2018-04-06T00:43:01.329Z,4.33333333333
2018-04-06T00:43:13.460Z,4.33333333333
2018-04-06T00:43:25.589Z,4.33333333333
2018-04-06T00:43:37.741Z,4.38888888889
2018-04-06T00:43:49.907Z,4.33333333333
2018-04-06T00:44:02.094Z,4.38888888889
2018-04-06T00:44:14.246Z,4.38888888889
2018-04-06T00:44:26.416Z,4.38888888889
2018-04-06T00:44:38.552Z,4.33333333333
2018-04-06T00:44:50.696Z,4.38888888889
2018-04-06T00:45:02.832Z,4.38888888889
2018-04-06T00:45:14.976Z,4.33333333333
2018-04-06T00:45:27.126Z,4.33333333333
2018-04-06T00:45:39.286Z,4.33333333333
2018-04-06T00:45:51.441Z,4.33333333333
2018-04-06T00:46:03.582Z,4.38888888889
2018-04-06T00:46:15.771Z,4.33333333333
2018-04-06T00:46:27.909Z,4.38888888889
2018-04-06T00:46:40.111Z,4.38888888889
2018-04-06T00:46:52.307Z,4.33333333333
2018-04-06T00:47:04.490Z,4.33333333333
2018-04-06T00:47:16.646Z,4.38888888889
2018-04-06T00:47:28.788Z,4.33333333333
2018-04-06T00:47:41.309Z,4.38888888889
2018-04-06T00:47:53.466Z,4.33333333333
2018-04-06T00:48:05.769Z,4.33333333333
2018-04-06T00:48:17.922Z,4.33333333333
2018-04-06T00:48:30.086Z,4.33333333333
2018-04-06T00:48:42.213Z,4.33333333333
2018-04-06T00:48:54.359Z,4.33333333333
2018-04-06T00:49:06.526Z,4.33333333333
2018-04-06T00:49:18.687Z,4.33333333333
2018-04-06T00:49:31.206Z,4.33333333333
2018-04-06T00:49:43.391Z,4.33333333333
2018-04-06T00:49:55.534Z,4.38888888889
2018-04-06T00:50:07.721Z,4.33333333333
2018-04-06T00:50:19.887Z,4.33333333333
2018-04-06T00:50:32.037Z,4.33333333333
2018-04-06T00:50:44.171Z,4.33333333333
2018-04-06T00:50:56.316Z,4.33333333333
2018-04-06T00:51:08.444Z,4.33333333333
2018-04-06T00:51:20.593Z,4.33333333333
2018-04-06T00:51:32.901Z,4.33333333333
2018-04-06T00:51:45.042Z,4.33333333333
2018-04-06T00:51:57.214Z,4.33333333333
2018-04-06T00:52:09.353Z,4.33333333333
2018-04-06T00:52:21.464Z,4.33333333333
2018-04-06T00:52:34.017Z,4.33333333333
2018-04-06T00:52:46.173Z,4.33333333333
2018-04-06T00:52:58.350Z,4.33333333333
2018-04-06T00:53:10.505Z,4.33333333333
2018-04-06T00:53:22.657Z,4.33333333333
2018-04-06T00:53:34.817Z,4.33333333333
2018-04-06T00:53:46.936Z,4.33333333333
2018-04-06T00:53:59.092Z,4.33333333333
2018-04-06T00:54:11.228Z,4.33333333333
2018-04-06T00:54:23.381Z,4.33333333333
2018-04-06T00:54:35.561Z,4.33333333333
2018-04-06T00:54:47.715Z,4.33333333333
2018-04-06T00:54:59.884Z,4.33333333333
2018-04-06T00:55:12.161Z,4.33333333333
2018-04-06T00:55:24.315Z,4.33333333333
2018-04-06T00:55:36.474Z,4.33333333333
2018-04-06T00:55:48.600Z,4.33333333333
2018-04-06T00:56:00.743Z,4.27777777778
2018-04-06T00:56:12.899Z,4.33333333333
2018-04-06T00:56:25.036Z,4.33333333333
2018-04-06T00:56:37.215Z,4.33333333333
2018-04-06T00:56:49.379Z,4.33333333333
2018-04-06T00:57:01.538Z,4.27777777778
2018-04-06T00:57:13.699Z,4.33333333333
2018-04-06T00:57:25.865Z,4.33333333333
2018-04-06T00:57:38.266Z,4.27777777778
2018-04-06T00:57:50.421Z,4.33333333333
2018-04-06T00:58:02.620Z,4.27777777778
2018-04-06T00:58:14.768Z,4.27777777778
2018-04-06T00:58:26.923Z,4.33333333333
2018-04-06T00:58:39.078Z,4.33333333333
2018-04-06T00:58:51.242Z,4.27777777778
2018-04-06T00:59:03.397Z,4.27777777778
2018-04-06T00:59:15.557Z,4.27777777778
2018-04-06T00:59:27.709Z,4.27777777778
2018-04-06T00:59:39.837Z,4.27777777778
2018-04-06T00:59:51.994Z,4.27777777778
2018-04-06T01:00:04.158Z,4.33333333333
2018-04-06T01:00:16.346Z,4.27777777778
2018-04-06T01:00:28.516Z,4.27777777778
2018-04-06T01:00:40.710Z,4.33333333333
2018-04-06T01:00:52.862Z,4.27777777778
2018-04-06T01:01:05.038Z,4.27777777778
2018-04-06T01:01:17.232Z,4.27777777778
2018-04-06T01:01:29.421Z,4.27777777778
2018-04-06T01:01:41.587Z,4.27777777778
2018-04-06T01:01:53.747Z,4.27777777778
2018-04-06T01:02:05.938Z,4.27777777778
2018-04-06T01:02:18.098Z,4.27777777778
2018-04-06T01:02:30.354Z,4.27777777778
2018-04-06T01:02:42.521Z,4.27777777778
2018-04-06T01:02:54.711Z,4.27777777778
2018-04-06T01:03:06.905Z,4.27777777778
2018-04-06T01:03:19.074Z,4.27777777778
2018-04-06T01:03:31.248Z,4.27777777778
2018-04-06T01:03:43.412Z,4.27777777778
2018-04-06T01:03:55.563Z,4.27777777778
2018-04-06T01:04:07.735Z,4.27777777778
2018-04-06T01:04:19.934Z,4.27777777778
2018-04-06T01:04:32.087Z,4.27777777778
2018-04-06T01:04:44.247Z,4.27777777778
2018-04-06T01:04:56.403Z,4.27777777778
2018-04-06T01:05:08.566Z,4.27777777778
2018-04-06T01:05:20.732Z,4.27777777778
2018-04-06T01:05:32.862Z,4.27777777778
2018-04-06T01:05:45.022Z,4.27777777778
2018-04-06T01:05:57.164Z,4.27777777778
2018-04-06T01:06:09.314Z,4.27777777778
2018-04-06T01:06:21.467Z,4.22222222222
2018-04-06T01:06:33.610Z,4.27777777778
2018-04-06T01:06:45.758Z,4.27777777778
2018-04-06T01:06:57.925Z,4.22222222222
2018-04-06T01:07:10.067Z,4.27777777778
2018-04-06T01:07:22.226Z,4.22222222222
2018-04-06T01:07:34.565Z,4.22222222222
2018-04-06T01:07:46.731Z,4.22222222222
2018-04-06T01:07:58.904Z,4.22222222222
2018-04-06T01:08:11.070Z,4.22222222222
2018-04-06T01:08:23.266Z,4.22222222222
2018-04-06T01:08:35.411Z,4.22222222222
2018-04-06T01:08:47.556Z,4.22222222222
2018-04-06T01:08:59.690Z,4.22222222222
2018-04-06T01:09:11.840Z,4.16666666667
2018-04-06T01:09:23.988Z,4.22222222222
2018-04-06T01:09:36.122Z,4.22222222222
2018-04-06T01:09:48.297Z,4.16666666667
2018-04-06T01:10:00.432Z,4.22222222222
2018-04-06T01:10:12.599Z,4.22222222222
2018-04-06T01:10:24.736Z,4.16666666667
2018-04-06T01:10:36.915Z,4.16666666667
2018-04-06T01:10:49.064Z,4.22222222222
2018-04-06T01:11:01.217Z,4.16666666667
2018-04-06T01:11:13.651Z,4.16666666667
2018-04-06T01:11:25.793Z,4.22222222222
2018-04-06T01:11:37.943Z,4.22222222222
2018-04-06T01:11:50.394Z,4.22222222222
2018-04-06T01:12:02.548Z,4.16666666667
2018-04-06T01:12:14.718Z,4.16666666667
2018-04-06T01:12:26.860Z,4.16666666667
2018-04-06T01:12:39.003Z,4.16666666667
2018-04-06T01:12:51.135Z,4.16666666667
2018-04-06T01:13:03.416Z,4.16666666667
2018-04-06T01:13:15.559Z,4.16666666667
2018-04-06T01:13:27.720Z,4.16666666667
2018-04-06T01:13:39.895Z,4.16666666667
2018-04-06T01:13:52.082Z,4.16666666667
2018-04-06T01:14:04.229Z,4.16666666667
2018-04-06T01:14:16.389Z,4.16666666667
2018-04-06T01:14:28.523Z,4.16666666667
2018-04-06T01:14:40.692Z,4.16666666667
2018-04-06T01:14:52.866Z,4.16666666667
2018-04-06T01:15:05.021Z,4.16666666667
2018-04-06T01:15:17.176Z,4.16666666667
2018-04-06T01:15:29.308Z,4.16666666667
2018-04-06T01:15:41.454Z,4.16666666667
2018-04-06T01:15:53.613Z,4.16666666667
2018-04-06T01:16:05.786Z,4.16666666667
2018-04-06T01:16:18.013Z,4.16666666667
2018-04-06T01:16:30.172Z,4.16666666667
2018-04-06T01:16:42.315Z,4.16666666667
2018-04-06T01:16:54.461Z,4.11111111111
2018-04-06T01:17:06.640Z,4.11111111111
2018-04-06T01:17:18.787Z,4.16666666667
2018-04-06T01:17:30.942Z,4.16666666667
2018-04-06T01:17:43.086Z,4.11111111111
2018-04-06T01:17:55.390Z,4.16666666667
2018-04-06T01:18:07.546Z,4.16666666667
2018-04-06T01:18:19.698Z,4.11111111111
2018-04-06T01:18:31.839Z,4.11111111111
2018-04-06T01:18:44.045Z,4.16666666667
2018-04-06T01:18:56.197Z,4.16666666667
2018-04-06T01:19:08.345Z,4.16666666667
2018-04-06T01:19:20.486Z,4.16666666667
2018-04-06T01:19:32.621Z,4.11111111111
2018-04-06T01:19:44.794Z,4.11111111111
2018-04-06T01:19:56.959Z,4.11111111111
2018-04-06T01:20:09.117Z,4.11111111111
2018-04-06T01:20:21.283Z,4.11111111111
2018-04-06T01:20:33.435Z,4.11111111111
2018-04-06T01:20:45.608Z,4.11111111111
2018-04-06T01:20:57.754Z,4.11111111111
2018-04-06T01:21:09.943Z,4.11111111111
2018-04-06T01:21:22.100Z,4.11111111111
2018-04-06T01:21:34.248Z,4.11111111111
2018-04-06T01:21:46.396Z,4.11111111111
2018-04-06T01:21:58.529Z,4.11111111111
2018-04-06T01:22:10.809Z,4.05555555556
2018-04-06T01:22:22.957Z,4.11111111111
2018-04-06T01:22:35.081Z,4.05555555556
2018-04-06T01:22:47.271Z,4.11111111111
2018-04-06T01:22:59.412Z,4.05555555556
2018-04-06T01:23:11.578Z,4.05555555556
2018-04-06T01:23:23.743Z,4.05555555556
2018-04-06T01:23:36.091Z,4.05555555556
2018-04-06T01:23:48.244Z,4.11111111111
2018-04-06T01:24:00.397Z,4.05555555556
2018-04-06T01:24:12.548Z,4.11111111111
2018-04-06T01:24:24.692Z,4.05555555556
2018-04-06T01:24:36.872Z,4.05555555556
2018-04-06T01:24:49.009Z,4.11111111111
2018-04-06T01:25:01.166Z,4.05555555556
2018-04-06T01:25:13.329Z,4.05555555556
2018-04-06T01:25:25.464Z,4.05555555556
2018-04-06T01:25:37.602Z,4.05555555556
2018-04-06T01:25:49.804Z,4.05555555556
2018-04-06T01:26:01.980Z,4.05555555556
2018-04-06T01:26:14.130Z,4.05555555556
2018-04-06T01:26:26.255Z,4.05555555556
2018-04-06T01:26:38.403Z,4.05555555556
2018-04-06T01:26:50.547Z,4.05555555556
2018-04-06T01:27:02.696Z,4.05555555556
2018-04-06T01:27:14.830Z,4.05555555556
2018-04-06T01:27:26.986Z,4.05555555556
2018-04-06T01:27:39.112Z,4.05555555556
2018-04-06T01:27:51.259Z,4.05555555556
2018-04-06T01:28:03.408Z,4.05555555556
2018-04-06T01:28:15.579Z,4.05555555556
2018-04-06T01:28:27.740Z,4.05555555556
2018-04-06T01:28:39.915Z,4.05555555556
2018-04-06T01:28:52.073Z,4.05555555556
2018-04-06T01:29:04.234Z,4.05555555556
2018-04-06T01:29:16.382Z,4.05555555556
2018-04-06T01:29:28.523Z,4.05555555556
2018-04-06T01:29:40.668Z,4.05555555556
2018-04-06T01:29:52.846Z,4.05555555556
2018-04-06T01:30:04.983Z,4.05555555556
2018-04-06T01:30:17.131Z,4.05555555556
2018-04-06T01:30:29.287Z,4.05555555556
2018-04-06T01:30:41.453Z,4.05555555556
2018-04-06T01:30:53.627Z,4.05555555556
2018-04-06T01:31:05.798Z,4
2018-04-06T01:31:17.932Z,4
2018-04-06T01:31:30.097Z,4.05555555556
2018-04-06T01:31:42.242Z,4.05555555556
2018-04-06T01:31:54.383Z,4
2018-04-06T01:32:06.525Z,4.05555555556
2018-04-06T01:32:18.667Z,4
2018-04-06T01:32:30.803Z,4
2018-04-06T01:32:42.931Z,4
2018-04-06T01:32:55.089Z,4.05555555556
2018-04-06T01:33:07.235Z,4
2018-04-06T01:33:19.363Z,4
2018-04-06T01:33:31.518Z,4
2018-04-06T01:33:43.729Z,4
2018-04-06T01:33:55.921Z,4
2018-04-06T01:34:08.059Z,4
2018-04-06T01:34:20.212Z,4
2018-04-06T01:34:32.368Z,4
2018-04-06T01:34:44.531Z,4
2018-04-06T01:34:56.686Z,4
2018-04-06T01:35:08.851Z,4
2018-04-06T01:35:20.991Z,4
2018-04-06T01:35:33.181Z,4
2018-04-06T01:35:45.312Z,4
2018-04-06T01:35:57.455Z,4
2018-04-06T01:36:09.610Z,4
2018-04-06T01:36:21.730Z,4
2018-04-06T01:36:33.895Z,4
2018-04-06T01:36:46.059Z,4
2018-04-06T01:36:58.201Z,4
2018-04-06T01:37:10.329Z,3.94444444444
2018-04-06T01:37:22.489Z,3.94444444444
2018-04-06T01:37:34.623Z,4
2018-04-06T01:37:46.756Z,3.94444444444
2018-04-06T01:37:58.906Z,3.94444444444
2018-04-06T01:38:11.065Z,3.94444444444
2018-04-06T01:38:23.208Z,3.94444444444
2018-04-06T01:38:35.381Z,3.94444444444
2018-04-06T01:38:47.759Z,3.94444444444
2018-04-06T01:38:59.926Z,3.94444444444
2018-04-06T01:39:12.119Z,3.94444444444
2018-04-06T01:39:24.249Z,3.94444444444
2018-04-06T01:39:36.402Z,3.94444444444
2018-04-06T01:39:48.549Z,3.94444444444
2018-04-06T01:40:00.749Z,3.94444444444
2018-04-06T01:40:12.888Z,3.94444444444
2018-04-06T01:40:25.022Z,3.94444444444
2018-04-06T01:40:37.169Z,3.94444444444
2018-04-06T01:40:49.441Z,3.88888888889
2018-04-06T01:41:01.604Z,3.94444444444
2018-04-06T01:41:13.773Z,3.94444444444
2018-04-06T01:41:25.940Z,3.94444444444
2018-04-06T01:41:38.083Z,3.94444444444
2018-04-06T01:41:50.248Z,3.94444444444
2018-04-06T01:42:02.413Z,3.94444444444
2018-04-06T01:42:14.547Z,3.94444444444
2018-04-06T01:42:26.692Z,3.94444444444
2018-04-06T01:42:38.847Z,3.94444444444
2018-04-06T01:42:50.994Z,3.88888888889
2018-04-06T01:43:03.126Z,3.94444444444
2018-04-06T01:43:15.262Z,3.94444444444
2018-04-06T01:43:27.407Z,3.88888888889
2018-04-06T01:43:39.565Z,3.94444444444
2018-04-06T01:43:51.759Z,3.94444444444
2018-04-06T01:44:03.966Z,3.94444444444
2018-04-06T01:44:16.104Z,3.94444444444
2018-04-06T01:44:28.254Z,3.94444444444
2018-04-06T01:44:40.457Z,3.88888888889
2018-04-06T01:44:52.596Z,3.88888888889
2018-04-06T01:45:04.774Z,3.88888888889
2018-04-06T01:45:16.928Z,3.88888888889
2018-04-06T01:45:29.064Z,3.88888888889
2018-04-06T01:45:41.267Z,3.88888888889
2018-04-06T01:45:53.419Z,3.88888888889
2018-04-06T01:46:05.583Z,3.88888888889
2018-04-06T01:46:17.757Z,3.88888888889
2018-04-06T01:46:29.972Z,3.88888888889
2018-04-06T01:46:42.131Z,3.88888888889
2018-04-06T01:46:54.326Z,3.88888888889
2018-04-06T01:47:06.497Z,3.88888888889
2018-04-06T01:47:18.664Z,3.88888888889
2018-04-06T01:47:30.816Z,3.88888888889
2018-04-06T01:47:42.957Z,3.88888888889
2018-04-06T01:47:55.087Z,3.88888888889
2018-04-06T01:48:07.379Z,3.88888888889
2018-04-06T01:48:19.520Z,3.88888888889
2018-04-06T01:48:31.675Z,3.88888888889
2018-04-06T01:48:43.813Z,3.88888888889
2018-04-06T01:48:55.943Z,3.88888888889
2018-04-06T01:49:08.114Z,3.88888888889
2018-04-06T01:49:20.244Z,3.88888888889
2018-04-06T01:49:32.527Z,3.88888888889
2018-04-06T01:49:44.700Z,3.88888888889
2018-04-06T01:49:56.859Z,3.88888888889
2018-04-06T01:50:09.028Z,3.88888888889
2018-04-06T01:50:21.182Z,3.88888888889
2018-04-06T01:50:33.306Z,3.88888888889
2018-04-06T01:50:45.464Z,3.88888888889
2018-04-06T01:50:57.629Z,3.88888888889
2018-04-06T01:51:09.763Z,3.88888888889
2018-04-06T01:51:21.906Z,3.88888888889
2018-04-06T01:51:34.270Z,3.88888888889
2018-04-06T01:51:46.423Z,3.88888888889
2018-04-06T01:51:58.572Z,3.88888888889
2018-04-06T01:52:10.711Z,3.88888888889
2018-04-06T01:52:22.914Z,3.88888888889
2018-04-06T01:52:35.241Z,3.88888888889
2018-04-06T01:52:47.389Z,3.88888888889
2018-04-06T01:52:59.783Z,3.88888888889
2018-04-06T01:53:12.001Z,3.88888888889
2018-04-06T01:53:24.119Z,3.88888888889
2018-04-06T01:53:36.246Z,3.83333333333
2018-04-06T01:53:48.395Z,3.88888888889
2018-04-06T01:54:00.534Z,3.83333333333
2018-04-06T01:54:12.664Z,3.83333333333
2018-04-06T01:54:24.825Z,3.83333333333
2018-04-06T01:54:36.982Z,3.83333333333
2018-04-06T01:54:49.108Z,3.88888888889
2018-04-06T01:55:01.228Z,3.83333333333
2018-04-06T01:55:13.349Z,3.83333333333
2018-04-06T01:55:25.511Z,3.88888888889
2018-04-06T01:55:37.633Z,3.83333333333
2018-04-06T01:55:49.756Z,3.83333333333
2018-04-06T01:56:01.915Z,3.83333333333
2018-04-06T01:56:14.063Z,3.83333333333
2018-04-06T01:56:26.203Z,3.83333333333
2018-04-06T01:56:38.352Z,3.83333333333
2018-04-06T01:56:50.479Z,3.83333333333
2018-04-06T01:57:02.636Z,3.83333333333
2018-04-06T01:57:14.779Z,3.83333333333
2018-04-06T01:57:26.949Z,3.88888888889
2018-04-06T01:57:39.088Z,3.83333333333
2018-04-06T01:57:51.229Z,3.83333333333
2018-04-06T01:58:03.385Z,3.83333333333
2018-04-06T01:58:15.582Z,3.83333333333
2018-04-06T01:58:27.745Z,3.83333333333
2018-04-06T01:58:39.898Z,3.83333333333
2018-04-06T01:58:52.072Z,3.83333333333
2018-04-06T01:59:04.232Z,3.83333333333
2018-04-06T01:59:16.368Z,3.83333333333
2018-04-06T01:59:28.514Z,3.83333333333
2018-04-06T01:59:40.646Z,3.83333333333
2018-04-06T01:59:52.803Z,3.83333333333
2018-04-06T02:00:05.193Z,3.83333333333
2018-04-06T02:00:17.405Z,3.83333333333
2018-04-06T02:00:29.589Z,3.83333333333
2018-04-06T02:00:41.762Z,3.83333333333
2018-04-06T02:00:53.920Z,3.83333333333
2018-04-06T02:01:06.094Z,3.83333333333
2018-04-06T02:01:18.255Z,3.83333333333
2018-04-06T02:01:30.404Z,3.83333333333
2018-04-06T02:01:42.540Z,3.83333333333
2018-04-06T02:01:54.735Z,3.83333333333
2018-04-06T02:02:06.889Z,3.83333333333
2018-04-06T02:02:19.032Z,3.83333333333
2018-04-06T02:02:31.240Z,3.83333333333
2018-04-06T02:02:43.411Z,3.77777777778
2018-04-06T02:02:55.587Z,3.77777777778
2018-04-06T02:03:07.769Z,3.77777777778
2018-04-06T02:03:19.945Z,3.83333333333
2018-04-06T02:03:32.102Z,3.83333333333
2018-04-06T02:03:44.269Z,3.77777777778
2018-04-06T02:03:56.426Z,3.77777777778
2018-04-06T02:04:08.567Z,3.77777777778
2018-04-06T02:04:20.724Z,3.77777777778
2018-04-06T02:04:32.857Z,3.77777777778
2018-04-06T02:04:44.989Z,3.77777777778
2018-04-06T02:04:57.168Z,3.83333333333
2018-04-06T02:05:09.320Z,3.77777777778
2018-04-06T02:05:21.469Z,3.77777777778
2018-04-06T02:05:33.610Z,3.77777777778
2018-04-06T02:05:45.761Z,3.77777777778
2018-04-06T02:05:57.910Z,3.77777777778
2018-04-06T02:06:10.054Z,3.77777777778
2018-04-06T02:06:22.238Z,3.77777777778
2018-04-06T02:06:34.400Z,3.77777777778
2018-04-06T02:06:46.610Z,3.77777777778
2018-04-06T02:06:58.741Z,3.77777777778
2018-04-06T02:07:10.879Z,3.77777777778
2018-04-06T02:07:23.022Z,3.77777777778
2018-04-06T02:07:35.161Z,3.77777777778
2018-04-06T02:07:47.303Z,3.77777777778
2018-04-06T02:07:59.465Z,3.77777777778
2018-04-06T02:08:11.639Z,3.77777777778
2018-04-06T02:08:23.784Z,3.77777777778